AQQ10 IFIS: Internet Flight Information System
logo dgac
Martes 28 de Mayo del 2024
Buscar por aerodromo o helipuerto
Ingrese nombre de aeródromo, localidad o designador OACI:
METAR del 28-05-2024 a las 08:00 UTC
Para mayor información visite www.meteochile.gob.cl
METAR SCDA 280800Z VRB02KT 9999 OVC021 16/10 Q1015
Viento: dirección variable, velocidad 2 nudos
Visibilidad: 10 km o más
Nubes: Cubierto a 2100 pies sobre el nivel del aeródromo
Temperatura: 16 °C
Rocío: 10 °C
Humedad_relativa: 68%
Presión: 1015 hPa
METAR del 28-05-2024 a las 07:00 UTC
Para mayor información visite www.meteochile.gob.cl
METAR SCDA 280700Z VRB02KT 9999 OVC021 16/11 Q1016
Viento: dirección variable, velocidad 2 nudos
Visibilidad: 10 km o más
Nubes: Cubierto a 2100 pies sobre el nivel del aeródromo
Temperatura: 16 °C
Rocío: 11 °C
Humedad_relativa: 72%
Presión: 1016 hPa
METAR del 28-05-2024 a las 06:00 UTC
Para mayor información visite www.meteochile.gob.cl
METAR SCDA 280600Z 24003KT 200V330 9999 OVC021 16/11 Q1016
Viento: dirección 240 grados, velocidad 3 nudos
Viento con dirección variable entre 200 y 330 grados
Visibilidad: 10 km o más
Nubes: Cubierto a 2100 pies sobre el nivel del aeródromo
Temperatura: 16 °C
Rocío: 11 °C
Humedad_relativa: 72%
Presión: 1016 hPa
METAR del 28-05-2024 a las 05:00 UTC
Para mayor información visite www.meteochile.gob.cl
METAR SCDA 280500Z 24004KT 9999 OVC022 16/11 Q1016
Viento: dirección 240 grados, velocidad 4 nudos
Visibilidad: 10 km o más
Nubes: Cubierto a 2200 pies sobre el nivel del aeródromo
Temperatura: 16 °C
Rocío: 11 °C
Humedad_relativa: 72%
Presión: 1016 hPa
METAR del 28-05-2024 a las 04:00 UTC
Para mayor información visite www.meteochile.gob.cl
METAR SCDA 280400Z 27003KT 220V300 9999 OVC023 16/11 Q1016
Viento: dirección 270 grados, velocidad 3 nudos
Viento con dirección variable entre 220 y 300 grados
Visibilidad: 10 km o más
Nubes: Cubierto a 2300 pies sobre el nivel del aeródromo
Temperatura: 16 °C
Rocío: 11 °C
Humedad_relativa: 72%
Presión: 1016 hPa
METAR del 28-05-2024 a las 03:00 UTC
Para mayor información visite www.meteochile.gob.cl
METAR SCDA 280300Z VRB02KT 9999 OVC023 17/11 Q1017
Viento: dirección variable, velocidad 2 nudos
Visibilidad: 10 km o más
Nubes: Cubierto a 2300 pies sobre el nivel del aeródromo
Temperatura: 17 °C
Rocío: 11 °C
Humedad_relativa: 68%
Presión: 1017 hPa
METAR del 28-05-2024 a las 02:00 UTC
Para mayor información visite www.meteochile.gob.cl
METAR SCDA 280200Z 16004KT 090V190 9999 OVC024 17/11 Q1016
Viento: dirección 160 grados, velocidad 4 nudos
Viento con dirección variable entre 090 y 190 grados
Visibilidad: 10 km o más
Nubes: Cubierto a 2400 pies sobre el nivel del aeródromo
Temperatura: 17 °C
Rocío: 11 °C
Humedad_relativa: 68%
Presión: 1016 hPa
METAR del 28-05-2024 a las 01:00 UTC
Para mayor información visite www.meteochile.gob.cl
METAR SCDA 280100Z 19005KT 160V220 9999 OVC024 17/11 Q1016
Viento: dirección 190 grados, velocidad 5 nudos
Viento con dirección variable entre 160 y 220 grados
Visibilidad: 10 km o más
Nubes: Cubierto a 2400 pies sobre el nivel del aeródromo
Temperatura: 17 °C
Rocío: 11 °C
Humedad_relativa: 68%
Presión: 1016 hPa
METAR del 28-05-2024 a las 00:00 UTC
Para mayor información visite www.meteochile.gob.cl
METAR SCDA 280000Z 22006KT 9999 OVC025 17/11 Q1016
Viento: dirección 220 grados, velocidad 6 nudos
Visibilidad: 10 km o más
Nubes: Cubierto a 2500 pies sobre el nivel del aeródromo
Temperatura: 17 °C
Rocío: 11 °C
Humedad_relativa: 68%
Presión: 1016 hPa
METAR del 27-05-2024 a las 23:00 UTC
Para mayor información visite www.meteochile.gob.cl
METAR SCDA 272300Z 20009KT 9999 BKN028 17/12 Q1015
Viento: dirección 200 grados, velocidad 9 nudos
Visibilidad: 10 km o más
Nubes: Nublado a 2800 pies sobre el nivel del aeródromo
Temperatura: 17 °C
Rocío: 12 °C
Humedad_relativa: 72%
Presión: 1015 hPa